Time;durP1;ratioP1;P1;durP2;ratioP2;P2;SDS_P1;SDS_P2;PMS_P1;PMS_P2;Temp;Humidity;BMP_temperature;BMP_pressure;BME280_temperature;BME280_humidity;BME280_pressure;Samples;Min_cycle;Max_cycle;Signal;HPM_P1;HPM_P2
2022/10/19 00:01:42;;;;;;;10.52;3.55;;;8.80;91.70;;;;;;5033771;28;20033;-46
2022/10/19 00:04:08;;;;;;;7.97;3.15;;;8.70;91.60;;;;;;5033393;28;20405;-47
2022/10/19 00:06:35;;;;;;;10.35;4.97;;;8.60;91.40;;;;;;5033668;28;20115;-52
2022/10/19 00:09:07;;;;;;;14.00;3.63;;;8.50;91.50;;;;;;5033519;28;20116;-47
2022/10/19 00:11:35;;;;;;;12.32;3.63;;;8.50;91.60;;;;;;5033548;28;20029;-49
2022/10/19 00:14:01;;;;;;;16.20;3.88;;;8.40;91.70;;;;;;5033711;28;20060;-47
2022/10/19 00:16:29;;;;;;;6.80;3.25;;;8.40;91.70;;;;;;5033321;28;20037;-49
2022/10/19 00:18:57;;;;;;;7.53;3.45;;;8.40;91.80;;;;;;5033252;28;20021;-46
2022/10/19 00:21:22;;;;;;;10.63;4.15;;;8.40;91.80;;;;;;5033332;28;20109;-48
2022/10/19 00:23:48;;;;;;;11.15;3.83;;;8.30;91.80;;;;;;5033854;28;20434;-47
2022/10/19 00:26:14;;;;;;;16.55;3.88;;;8.30;91.90;;;;;;5033582;28;20432;-47
2022/10/19 00:28:40;;;;;;;9.27;4.10;;;8.30;92.00;;;;;;5033331;28;20519;-46
2022/10/19 00:31:16;;;;;;;7.93;3.40;;;8.40;92.00;;;;;;5033294;28;20381;-47
2022/10/19 00:33:45;;;;;;;15.15;3.53;;;8.30;92.10;;;;;;5033120;28;20022;-48
2022/10/19 00:36:24;;;;;;;11.85;5.07;;;8.30;92.20;;;;;;5032853;28;20029;-47
2022/10/19 00:38:51;;;;;;;7.25;3.10;;;8.40;92.20;;;;;;5033258;28;20033;-47
2022/10/19 00:41:18;;;;;;;6.28;2.97;;;8.30;92.30;;;;;;5033085;28;20382;-48
2022/10/19 00:43:54;;;;;;;15.98;4.82;;;8.30;92.30;;;;;;5033199;28;20022;-47
2022/10/19 00:46:21;;;;;;;9.25;3.30;;;8.30;92.30;;;;;;5033526;28;20053;-47
2022/10/19 00:48:47;;;;;;;12.52;3.10;;;8.30;92.30;;;;;;5032525;28;20050;-47
2022/10/19 00:51:13;;;;;;;8.75;3.33;;;8.40;92.30;;;;;;5032885;28;20029;-47
2022/10/19 00:53:40;;;;;;;8.32;3.13;;;8.30;92.20;;;;;;5031868;28;20076;-47
2022/10/19 00:56:11;;;;;;;8.05;3.90;;;8.30;92.20;;;;;;5032949;28;20141;-46
2022/10/19 00:58:38;;;;;;;7.60;3.67;;;8.30;92.20;;;;;;5033087;28;20025;-47
2022/10/19 01:01:06;;;;;;;8.35;3.17;;;8.30;92.20;;;;;;5032992;28;20481;-47
2022/10/19 01:04:24;;;;;;;9.60;3.30;;;8.30;92.20;;;;;;5032592;28;20428;-47
2022/10/19 01:06:51;;;;;;;7.70;3.00;;;8.30;92.20;;;;;;5032727;28;20350;-47
2022/10/19 01:09:16;;;;;;;9.73;3.35;;;8.20;92.10;;;;;;5031034;28;20022;-47
2022/10/19 01:12:15;;;;;;;8.73;3.03;;;8.10;92.00;;;;;;5035456;28;20021;-48
2022/10/19 01:15:05;;;;;;;10.90;3.50;;;8.00;92.10;;;;;;5035195;28;20053;-47
2022/10/19 01:17:40;;;;;;;8.35;3.03;;;8.00;92.10;;;;;;5036395;28;20033;-46
2022/10/19 01:20:25;;;;;;;5.40;3.00;;;8.00;92.10;;;;;;5036377;28;20446;-47
2022/10/19 01:23:37;;;;;;;11.05;3.58;;;8.00;92.20;;;;;;5036309;28;20441;-46
2022/10/19 01:26:14;;;;;;;12.02;3.30;;;8.00;92.30;;;;;;5036370;28;20091;-47
2022/10/19 01:28:48;;;;;;;9.02;3.45;;;8.00;92.20;;;;;;5036231;28;20528;-46
2022/10/19 01:31:34;;;;;;;8.73;3.40;;;7.90;92.20;;;;;;5036116;28;20017;-47
2022/10/19 01:34:05;;;;;;;6.82;2.92;;;7.90;92.10;;;;;;5036369;28;20036;-49
2022/10/19 01:36:37;;;;;;;9.80;4.30;;;7.80;92.10;;;;;;5036358;28;20021;-47
2022/10/19 01:39:09;;;;;;;8.93;3.30;;;7.80;92.10;;;;;;5034739;28;20397;-46
2022/10/19 01:41:54;;;;;;;7.85;3.40;;;7.70;92.00;;;;;;5035891;28;20044;-47
2022/10/19 01:44:34;;;;;;;11.45;3.80;;;7.60;92.10;;;;;;5036513;28;20377;-47
2022/10/19 01:47:05;;;;;;;;;;;7.60;92.10;;;;;;5035139;28;20022;-47
2022/10/19 01:49:55;;;;;;;9.73;4.13;;;7.60;92.10;;;;;;5035743;28;19917;-47
2022/10/19 01:52:24;;;;;;;10.50;4.68;;;7.60;92.10;;;;;;5036525;28;20048;-47
2022/10/19 01:54:56;;;;;;;14.05;4.50;;;7.60;92.20;;;;;;5035871;28;20021;-47
2022/10/19 01:57:34;;;;;;;6.47;3.80;;;7.60;92.20;;;;;;5035806;28;20029;-46
2022/10/19 02:00:06;;;;;;;6.70;3.92;;;7.70;92.30;;;;;;5035681;28;20029;-46
2022/10/19 02:02:35;;;;;;;6.47;4.20;;;7.70;92.40;;;;;;5036172;28;20029;-46
2022/10/19 02:05:04;;;;;;;13.13;4.97;;;7.70;92.40;;;;;;5034461;28;20057;-46
2022/10/19 02:07:31;;;;;;;9.70;4.38;;;7.70;92.50;;;;;;5036248;28;20084;-47
2022/10/19 02:09:57;;;;;;;7.18;4.85;;;7.70;92.50;;;;;;5035751;28;20036;-47
2022/10/19 02:12:24;;;;;;;6.35;3.33;;;7.70;92.50;;;;;;5036449;28;20084;-46
2022/10/19 02:14:53;;;;;;;17.02;6.18;;;7.70;92.50;;;;;;5035504;28;20104;-46
2022/10/19 02:17:24;;;;;;;6.93;3.47;;;7.70;92.50;;;;;;5035676;28;20036;-46
2022/10/19 02:19:51;;;;;;;12.70;3.55;;;7.60;92.50;;;;;;5035700;28;20025;-47
2022/10/19 02:22:16;;;;;;;9.93;4.43;;;7.60;92.40;;;;;;5034255;28;20061;-46
2022/10/19 02:24:42;;;;;;;12.90;4.65;;;7.60;92.50;;;;;;5035563;28;20067;-48
2022/10/19 02:27:08;;;;;;;19.20;5.07;;;7.60;92.50;;;;;;5035695;28;20380;-47
2022/10/19 02:29:36;;;;;;;12.07;5.05;;;7.60;92.50;;;;;;5035256;28;20037;-47
2022/10/19 02:32:03;;;;;;;11.82;5.20;;;7.60;92.60;;;;;;5035446;28;20033;-48
2022/10/19 02:34:29;;;;;;;6.05;3.88;;;7.60;92.60;;;;;;5035736;28;20021;-48
2022/10/19 02:36:55;;;;;;;15.60;4.47;;;7.60;92.60;;;;;;5035123;28;20430;-46
2022/10/19 02:39:21;;;;;;;9.10;5.15;;;7.60;92.60;;;;;;5035255;28;20100;-49
2022/10/19 02:41:56;;;;;;;8.52;4.53;;;7.60;92.70;;;;;;5035416;28;20029;-46
2022/10/19 02:44:28;;;;;;;8.73;4.90;;;7.60;92.70;;;;;;5033692;28;20040;-47
2022/10/19 02:47:08;;;;;;;10.13;4.70;;;7.60;92.60;;;;;;5035043;28;20024;-48
2022/10/19 02:49:36;;;;;;;16.25;5.60;;;7.60;92.60;;;;;;5033324;28;20049;-47
2022/10/19 02:52:07;;;;;;;16.52;6.28;;;7.50;92.60;;;;;;5033628;28;20036;-47
2022/10/19 02:54:33;;;;;;;7.88;5.30;;;7.60;92.70;;;;;;5034741;28;20056;-47
2022/10/19 02:56:59;;;;;;;17.40;4.57;;;7.70;92.80;;;;;;5034896;28;20049;-47
2022/10/19 02:59:25;;;;;;;12.15;5.32;;;7.60;92.70;;;;;;5034763;28;20504;-46
2022/10/19 03:01:51;;;;;;;17.83;5.80;;;7.70;92.90;;;;;;5034689;28;20032;-47
2022/10/19 03:04:16;;;;;;;15.27;6.28;;;7.80;93.00;;;;;;5034700;28;20496;-46
2022/10/19 03:06:42;;;;;;;15.90;6.60;;;7.80;93.10;;;;;;5034806;28;20025;-47
2022/10/19 03:09:08;;;;;;;16.30;6.70;;;7.80;93.10;;;;;;5035318;28;20476;-47
2022/10/19 03:11:34;;;;;;;15.27;7.13;;;7.90;93.20;;;;;;5033352;28;20025;-48
2022/10/19 03:14:00;;;;;;;13.13;7.18;;;8.00;93.30;;;;;;5034509;28;20025;-48
2022/10/19 03:16:25;;;;;;;18.50;6.68;;;8.00;93.40;;;;;;5034369;28;20026;-48
2022/10/19 03:18:51;;;;;;;16.67;6.75;;;8.00;93.50;;;;;;5034298;28;20021;-47
2022/10/19 03:21:18;;;;;;;15.25;7.38;;;8.00;93.40;;;;;;5034295;28;20026;-47
2022/10/19 03:23:43;;;;;;;15.68;6.97;;;8.00;93.50;;;;;;5034417;28;20049;-47
2022/10/19 03:26:13;;;;;;;16.90;6.97;;;7.90;93.50;;;;;;5034283;28;20068;-47
2022/10/19 03:28:39;;;;;;;10.88;5.97;;;7.90;93.50;;;;;;5034171;28;20036;-49
2022/10/19 03:31:05;;;;;;;17.05;7.65;;;7.90;93.60;;;;;;5034232;28;20025;-49
2022/10/19 03:33:31;;;;;;;13.52;6.30;;;7.90;93.60;;;;;;5033307;28;20030;-49
2022/10/19 03:36:22;;;;;;;15.68;7.60;;;8.00;93.70;;;;;;5034297;28;20049;-47
2022/10/19 03:38:54;;;;;;;12.07;6.80;;;8.10;93.80;;;;;;5032690;28;20017;-48
2022/10/19 03:41:21;;;;;;;12.90;6.53;;;8.00;93.70;;;;;;5034174;28;20025;-47
2022/10/19 03:43:47;;;;;;;13.48;7.18;;;8.00;93.70;;;;;;5034107;28;20033;-48
2022/10/19 03:46:13;;;;;;;19.02;6.90;;;8.10;93.70;;;;;;5034003;28;20032;-47
2022/10/19 03:48:39;;;;;;;28.60;7.88;;;8.10;93.70;;;;;;5033809;28;20132;-46
2022/10/19 03:51:10;;;;;;;23.30;7.88;;;8.00;93.70;;;;;;5034069;28;20109;-47
2022/10/19 03:53:36;;;;;;;16.42;7.40;;;8.00;93.60;;;;;;5034050;28;20022;-47
2022/10/19 03:56:03;;;;;;;16.35;7.07;;;8.00;93.70;;;;;;5033733;28;20030;-47
2022/10/19 03:58:31;;;;;;;17.80;6.93;;;8.00;93.70;;;;;;5033825;28;20033;-47
2022/10/19 04:00:57;;;;;;;13.13;6.90;;;8.00;93.70;;;;;;5034109;28;20389;-49
2022/10/19 04:03:22;;;;;;;12.18;7.05;;;8.00;93.70;;;;;;5033601;28;20100;-49
2022/10/19 04:05:48;;;;;;;18.15;7.47;;;8.10;93.70;;;;;;5033484;28;20156;-48
2022/10/19 04:08:13;;;;;;;12.82;7.45;;;8.10;93.80;;;;;;5032260;28;20053;-46
2022/10/19 04:10:39;;;;;;;15.25;7.40;;;8.20;93.80;;;;;;5033325;28;20025;-46
2022/10/19 04:13:04;;;;;;;12.77;7.22;;;8.20;93.80;;;;;;5033443;28;20112;-49
2022/10/19 04:15:30;;;;;;;22.55;7.47;;;8.20;93.80;;;;;;5033412;28;20028;-47
2022/10/19 04:17:56;;;;;;;23.13;8.93;;;8.20;93.70;;;;;;5033487;28;20021;-46
2022/10/19 04:20:21;;;;;;;22.42;7.80;;;8.10;93.70;;;;;;5033354;28;20468;-47
2022/10/19 04:22:47;;;;;;;20.67;8.32;;;8.00;93.70;;;;;;5033378;28;20032;-46
2022/10/19 04:25:12;;;;;;;21.20;8.93;;;8.00;93.80;;;;;;5033269;28;20026;-47
2022/10/19 04:27:38;;;;;;;14.43;7.10;;;8.00;93.80;;;;;;5033244;28;20032;-47
2022/10/19 04:30:04;;;;;;;19.52;7.85;;;8.00;93.70;;;;;;5032991;28;20025;-47
2022/10/19 04:32:30;;;;;;;14.27;7.90;;;7.80;93.70;;;;;;5033609;28;20079;-48
2022/10/19 04:34:56;;;;;;;19.63;7.13;;;7.80;93.60;;;;;;5033028;28;20437;-47
2022/10/19 04:37:21;;;;;;;9.80;4.88;;;7.70;93.50;;;;;;5032940;28;20338;-47
2022/10/19 04:39:47;;;;;;;9.85;5.22;;;7.60;93.20;;;;;;5033377;28;20064;-47
2022/10/19 04:42:12;;;;;;;9.93;4.93;;;7.40;93.10;;;;;;5033557;28;20378;-47
2022/10/19 04:44:38;;;;;;;10.05;5.10;;;7.40;93.10;;;;;;5033137;28;20030;-47
2022/10/19 04:47:04;;;;;;;12.02;5.10;;;7.30;93.00;;;;;;5033857;28;20057;-47
2022/10/19 04:49:29;;;;;;;8.18;5.63;;;7.30;92.90;;;;;;5032750;28;20045;-47
2022/10/19 04:51:55;;;;;;;14.90;5.82;;;7.20;92.90;;;;;;5033576;28;20484;-50
2022/10/19 04:54:20;;;;;;;9.05;5.32;;;7.30;93.00;;;;;;5033465;28;20075;-50
2022/10/19 04:56:46;;;;;;;7.57;5.05;;;7.20;93.00;;;;;;5033420;28;20021;-50
2022/10/19 04:59:12;;;;;;;16.15;6.15;;;7.20;93.10;;;;;;5033690;28;20098;-48
2022/10/19 05:01:37;;;;;;;11.52;7.15;;;7.30;93.10;;;;;;5031552;28;20033;-50
2022/10/19 05:04:03;;;;;;;13.32;6.63;;;7.30;93.20;;;;;;5033133;28;20041;-49
2022/10/19 05:06:30;;;;;;;15.10;7.20;;;7.30;93.20;;;;;;5033175;28;20395;-50
2022/10/19 05:08:56;;;;;;;19.00;7.47;;;7.30;93.20;;;;;;5033388;28;20105;-46
2022/10/19 05:11:22;;;;;;;21.60;7.53;;;7.40;93.30;;;;;;5033470;28;20025;-48
2022/10/19 05:13:48;;;;;;;12.25;7.10;;;7.40;93.20;;;;;;5033507;28;20101;-49
2022/10/19 05:16:16;;;;;;;15.98;6.68;;;7.40;93.10;;;;;;5033999;28;20543;-49
2022/10/19 05:18:46;;;;;;;16.05;7.35;;;7.30;93.00;;;;;;5033881;28;20037;-48
2022/10/19 05:21:13;;;;;;;10.05;6.65;;;7.20;92.90;;;;;;5032031;28;20436;-47
2022/10/19 05:23:40;;;;;;;19.50;7.13;;;7.20;92.90;;;;;;5031525;28;20109;-48
2022/10/19 05:26:16;;;;;;;25.83;8.25;;;7.20;93.00;;;;;;5033049;28;20117;-50
2022/10/19 05:28:42;;;;;;;13.18;7.35;;;7.10;93.00;;;;;;5033675;28;20036;-47
2022/10/19 05:31:13;;;;;;;13.65;7.30;;;7.10;92.90;;;;;;5032639;28;20068;-47
2022/10/19 05:33:38;;;;;;;;;;;7.10;93.00;;;;;;5033377;28;20024;-48
2022/10/19 05:36:13;;;;;;;17.83;8.20;;;7.30;93.10;;;;;;5033893;28;19905;-48
2022/10/19 05:38:39;;;;;;;13.55;9.68;;;7.30;93.00;;;;;;5032456;28;20021;-52
2022/10/19 05:41:05;;;;;;;13.88;8.80;;;7.30;93.00;;;;;;5032311;28;20033;-47
2022/10/19 05:43:31;;;;;;;21.85;11.27;;;7.30;93.00;;;;;;5032279;28;20041;-46
2022/10/19 05:46:01;;;;;;;16.60;9.48;;;7.40;93.10;;;;;;5032441;28;20516;-46
2022/10/19 16:47:44;;;;;;;4.13;2.50;;;12.10;77.30;;;;;;5144258;27;20829;-51
2022/10/19 16:50:10;;;;;;;8.27;2.38;;;12.10;77.70;;;;;;5111515;28;20432;-50
2022/10/19 16:52:36;;;;;;;7.13;2.53;;;12.10;77.80;;;;;;5109783;28;20103;-56
2022/10/19 16:55:02;;;;;;;3.40;2.67;;;12.10;77.70;;;;;;5111078;28;20024;-49
2022/10/19 16:57:27;;;;;;;4.68;2.03;;;12.10;77.70;;;;;;5110640;28;20035;-50
2022/10/19 16:59:53;;;;;;;3.75;2.67;;;12.10;77.60;;;;;;5111064;28;20028;-49
2022/10/19 17:02:20;;;;;;;10.35;2.13;;;12.10;77.60;;;;;;5110947;28;20030;-49
2022/10/19 17:04:46;;;;;;;7.10;3.10;;;12.00;77.70;;;;;;5110255;28;20111;-48
2022/10/19 17:07:12;;;;;;;8.88;2.50;;;12.00;78.00;;;;;;5110779;28;20115;-40
2022/10/19 17:09:38;;;;;;;3.40;2.03;;;11.90;78.10;;;;;;5110901;28;20404;-41
2022/10/19 17:12:05;;;;;;;8.07;2.33;;;11.80;78.10;;;;;;5110574;28;20027;-39
2022/10/19 17:14:31;;;;;;;12.75;4.47;;;11.80;78.30;;;;;;5110261;28;20104;-41
2022/10/19 17:16:57;;;;;;;5.60;3.20;;;11.80;78.50;;;;;;5110465;28;20027;-40
2022/10/19 17:19:22;;;;;;;7.93;3.63;;;11.80;78.60;;;;;;5110160;28;20022;-41
2022/10/19 17:21:48;;;;;;;6.57;2.55;;;11.80;78.60;;;;;;5110074;28;20028;-40
2022/10/19 17:24:17;;;;;;;12.70;2.42;;;11.80;78.30;;;;;;5110556;28;20374;-38
2022/10/19 17:26:46;;;;;;;5.03;2.13;;;11.70;78.30;;;;;;5109960;28;20027;-38
2022/10/19 17:29:12;;;;;;;9.52;3.20;;;11.70;78.30;;;;;;5109823;28;20016;-40
2022/10/19 17:31:39;;;;;;;4.10;2.47;;;11.70;78.40;;;;;;5110417;28;20020;-39
2022/10/19 17:34:06;;;;;;;4.85;2.35;;;11.70;78.40;;;;;;5110120;28;20028;-39
2022/10/19 17:36:34;;;;;;;8.63;3.17;;;11.60;78.40;;;;;;5109759;28;20028;-40
2022/10/19 17:39:04;;;;;;;3.25;2.58;;;11.60;78.40;;;;;;5109654;28;20127;-40
2022/10/19 17:41:30;;;;;;;12.80;2.85;;;11.60;78.60;;;;;;5108541;28;20024;-41
2022/10/19 17:43:57;;;;;;;9.13;3.22;;;11.50;78.60;;;;;;5109625;28;20365;-39
2022/10/19 17:46:25;;;;;;;5.03;2.35;;;11.50;78.50;;;;;;5109594;28;20487;-39
2022/10/19 17:48:51;;;;;;;7.32;3.03;;;11.50;78.60;;;;;;5109503;28;20020;-40
2022/10/19 17:51:23;;;;;;;6.82;2.90;;;11.50;78.60;;;;;;5109579;28;20027;-39
2022/10/19 17:53:49;;;;;;;4.82;3.05;;;11.40;78.70;;;;;;5109703;28;20016;-40
2022/10/19 17:56:18;;;;;;;5.45;2.47;;;11.30;78.90;;;;;;5109324;28;20031;-40
2022/10/19 17:58:44;;;;;;;9.18;4.13;;;11.40;79.00;;;;;;5098164;28;20020;-43
2022/10/19 18:01:12;;;;;;;10.98;3.30;;;11.30;79.20;;;;;;5095882;28;20020;-39
2022/10/19 18:03:38;;;;;;;3.78;2.20;;;11.30;79.30;;;;;;5094677;28;20028;-39
2022/10/19 18:06:22;;;;;;;20.35;3.75;;;11.30;79.40;;;;;;5095497;28;20020;-38
2022/10/19 18:08:51;;;;;;;6.53;2.90;;;11.30;79.60;;;;;;5094681;28;20383;-39
2022/10/19 18:11:23;;;;;;;7.95;2.92;;;11.30;79.70;;;;;;5094508;28;20068;-40
2022/10/19 18:13:50;;;;;;;5.05;2.63;;;11.20;80.10;;;;;;5095816;28;20100;-39
2022/10/19 18:16:25;;;;;;;16.35;4.75;;;11.20;80.10;;;;;;5096059;28;20055;-39
2022/10/19 18:18:55;;;;;;;7.80;3.30;;;11.10;80.10;;;;;;5096118;28;20024;-40
2022/10/19 18:21:26;;;;;;;8.70;4.32;;;11.10;80.20;;;;;;5095876;28;20478;-40
2022/10/19 18:23:54;;;;;;;7.38;4.10;;;11.10;80.30;;;;;;5095618;28;20127;-40
2022/10/19 18:26:22;;;;;;;5.60;3.88;;;11.10;80.20;;;;;;5095931;28;20032;-38
2022/10/19 18:28:51;;;;;;;9.30;3.58;;;11.10;80.40;;;;;;5096045;28;20021;-39
2022/10/19 18:31:21;;;;;;;7.65;3.67;;;11.00;80.40;;;;;;5097001;28;20077;-39
2022/10/19 18:33:48;;;;;;;4.05;3.00;;;11.00;80.80;;;;;;5095984;28;20020;-39
2022/10/19 18:36:15;;;;;;;10.40;4.57;;;11.00;80.60;;;;;;5096108;28;20495;-39
2022/10/19 18:38:41;;;;;;;7.40;3.35;;;11.00;80.80;;;;;;5094338;28;20076;-39
2022/10/19 18:41:10;;;;;;;6.68;3.47;;;10.90;80.90;;;;;;5095981;28;20460;-40
2022/10/19 18:43:37;;;;;;;6.80;3.47;;;10.80;81.00;;;;;;5095571;28;20031;-40
2022/10/19 18:46:02;;;;;;;45.20;6.85;;;10.80;81.10;;;;;;5095210;28;20046;-40
2022/10/19 18:48:29;;;;;;;7.22;3.67;;;10.80;81.30;;;;;;5095497;28;20476;-39
2022/10/19 18:50:56;;;;;;;11.20;3.47;;;10.80;81.50;;;;;;5098793;28;20024;-40
2022/10/19 18:53:22;;;;;;;6.70;3.47;;;10.70;81.50;;;;;;5095136;28;20035;-45
2022/10/19 18:56:02;;;;;;;7.20;3.95;;;10.70;81.70;;;;;;5094185;28;20078;-41
2022/10/19 18:58:31;;;;;;;;;;;10.70;81.90;;;;;;5094186;28;20364;-40
2022/10/19 19:01:19;;;;;;;5.70;3.65;;;10.60;82.00;;;;;;5095140;28;19904;-40
2022/10/19 19:03:48;;;;;;;6.85;3.92;;;10.60;82.20;;;;;;5094997;28;20056;-40
2022/10/19 19:06:21;;;;;;;7.25;4.10;;;10.50;82.40;;;;;;5094184;28;20020;-40
2022/10/19 19:08:48;;;;;;;5.90;3.38;;;10.40;82.50;;;;;;5092945;28;20020;-39
2022/10/19 19:11:20;;;;;;;8.90;3.63;;;10.40;82.80;;;;;;5092389;28;20027;-38
2022/10/19 19:13:51;;;;;;;7.25;4.07;;;10.30;82.90;;;;;;5076171;28;20024;-40
2022/10/19 19:16:18;;;;;;;10.15;4.00;;;10.30;83.10;;;;;;5094651;28;20374;-41
2022/10/19 19:18:44;;;;;;;9.32;4.72;;;10.30;83.30;;;;;;5092904;28;20564;-40
2022/10/19 19:21:22;;;;;;;6.28;3.55;;;10.40;83.50;;;;;;5094294;28;20052;-39
2022/10/19 19:23:49;;;;;;;8.50;3.97;;;10.30;83.30;;;;;;5094698;28;20095;-39
2022/10/19 19:26:16;;;;;;;8.02;4.47;;;10.20;83.60;;;;;;5093897;28;20020;-39
2022/10/19 19:28:42;;;;;;;6.40;4.03;;;10.20;83.70;;;;;;5093242;28;20027;-40
2022/10/19 19:31:10;;;;;;;9.73;6.05;;;10.10;84.00;;;;;;5094338;28;20028;-39
2022/10/19 19:33:37;;;;;;;9.10;4.55;;;10.10;84.10;;;;;;5093130;28;20024;-39
2022/10/19 19:36:07;;;;;;;10.35;4.53;;;10.10;84.20;;;;;;5094751;28;20028;-40
2022/10/19 19:38:33;;;;;;;13.65;5.57;;;10.10;84.60;;;;;;5093076;28;20131;-40
2022/10/19 19:41:03;;;;;;;10.88;6.10;;;10.00;84.70;;;;;;5094207;28;20047;-39
2022/10/19 19:43:30;;;;;;;8.27;4.80;;;10.00;84.80;;;;;;5094678;28;20024;-39
2022/10/19 19:46:00;;;;;;;5.70;4.30;;;9.90;84.80;;;;;;5094593;28;20040;-41
2022/10/19 19:48:26;;;;;;;6.53;3.87;;;9.90;85.00;;;;;;5095502;28;20028;-40
2022/10/19 19:50:52;;;;;;;10.60;4.80;;;9.90;85.00;;;;;;5094904;28;20258;-40
2022/10/19 19:53:17;;;;;;;7.80;4.35;;;9.80;84.90;;;;;;5095131;28;20024;-41
2022/10/19 19:55:46;;;;;;;7.53;5.00;;;9.80;85.10;;;;;;5095294;28;20089;-39
2022/10/19 19:58:14;;;;;;;10.93;4.55;;;9.80;85.20;;;;;;5095115;28;20032;-41
2022/10/19 20:00:40;;;;;;;7.88;4.47;;;9.80;85.30;;;;;;5093924;28;20116;-38
2022/10/19 20:03:05;;;;;;;6.57;4.63;;;9.80;85.50;;;;;;5093927;28;20063;-41
2022/10/19 20:05:31;;;;;;;9.85;4.55;;;9.80;85.60;;;;;;5093559;28;20085;-40
2022/10/19 20:07:57;;;;;;;8.10;5.25;;;9.70;85.70;;;;;;5092403;28;20050;-39
2022/10/19 20:10:23;;;;;;;6.05;4.07;;;9.70;85.80;;;;;;5093734;28;20490;-39
2022/10/19 20:12:49;;;;;;;14.80;6.18;;;9.70;85.80;;;;;;5093626;28;20020;-40
2022/10/19 20:15:16;;;;;;;10.50;5.50;;;9.60;86.00;;;;;;5093330;28;20472;-39
2022/10/19 20:17:43;;;;;;;12.48;5.03;;;9.60;86.20;;;;;;5093187;28;20028;-39
2022/10/19 20:20:11;;;;;;;13.98;5.43;;;9.50;86.20;;;;;;5092551;28;20032;-39
2022/10/19 20:22:37;;;;;;;15.13;4.93;;;9.50;86.30;;;;;;5093565;28;20035;-39
2022/10/19 20:25:03;;;;;;;11.23;6.15;;;9.40;86.50;;;;;;5093428;28;20157;-38
2022/10/19 20:27:29;;;;;;;10.07;6.10;;;9.40;86.80;;;;;;5093104;28;20414;-38
2022/10/19 20:29:58;;;;;;;10.43;7.10;;;9.30;86.70;;;;;;5093477;28;20031;-39
2022/10/19 20:32:25;;;;;;;7.63;4.82;;;9.30;86.80;;;;;;5093077;28;20021;-39
2022/10/19 20:34:51;;;;;;;11.10;5.55;;;9.30;86.90;;;;;;5074927;28;20067;-39
2022/10/19 20:37:17;;;;;;;7.07;5.47;;;9.30;87.00;;;;;;5093067;28;20024;-40
2022/10/19 20:39:42;;;;;;;8.93;5.10;;;9.30;87.10;;;;;;5093018;28;20028;-39
2022/10/19 20:42:08;;;;;;;9.57;5.03;;;9.20;87.20;;;;;;5093060;28;20028;-40
2022/10/19 20:44:34;;;;;;;10.25;6.13;;;9.20;87.30;;;;;;5093146;28;20063;-40
2022/10/19 20:47:00;;;;;;;10.85;5.80;;;9.20;87.40;;;;;;5093219;28;20040;-38
2022/10/19 20:49:25;;;;;;;15.38;5.80;;;9.10;87.40;;;;;;5091636;28;20404;-40
2022/10/19 20:51:53;;;;;;;10.25;5.28;;;9.10;87.60;;;;;;5093227;28;20431;-41
2022/10/19 20:54:19;;;;;;;8.80;6.10;;;9.10;87.70;;;;;;5092946;28;20523;-40
2022/10/19 20:56:45;;;;;;;9.65;6.05;;;9.00;87.70;;;;;;5092988;28;20053;-41
2022/10/19 20:59:14;;;;;;;10.93;5.88;;;9.00;87.80;;;;;;5093344;28;20028;-39
2022/10/19 21:01:41;;;;;;;10.70;5.47;;;9.10;88.00;;;;;;5093036;28;20044;-39
2022/10/19 21:04:10;;;;;;;13.75;5.80;;;9.00;87.90;;;;;;5093480;28;20460;-39
2022/10/19 21:06:44;;;;;;;13.82;5.85;;;9.00;88.00;;;;;;5092516;28;20028;-39
2022/10/19 21:09:13;;;;;;;11.20;5.47;;;8.90;88.00;;;;;;5091483;28;20494;-38
2022/10/19 21:11:40;;;;;;;14.27;5.55;;;8.90;88.00;;;;;;5092620;28;20024;-39
2022/10/19 21:14:15;;;;;;;15.55;6.88;;;8.80;88.10;;;;;;5091259;28;20027;-38
2022/10/19 21:16:41;;;;;;;10.73;6.72;;;8.80;88.20;;;;;;5092682;28;20067;-38
2022/10/19 21:19:11;;;;;;;9.70;5.60;;;8.80;88.20;;;;;;5092736;28;20036;-39
2022/10/19 21:21:39;;;;;;;10.97;6.10;;;8.80;88.30;;;;;;5092562;28;20025;-38
2022/10/19 21:24:17;;;;;;;11.48;6.32;;;8.80;88.30;;;;;;5092509;28;20050;-39
2022/10/19 21:26:43;;;;;;;14.85;6.55;;;8.80;88.40;;;;;;5092549;28;20503;-40
2022/10/19 21:29:10;;;;;;;10.63;6.00;;;8.80;88.50;;;;;;5091074;28;20020;-39
2022/10/19 21:31:38;;;;;;;13.63;6.30;;;8.70;88.50;;;;;;5092762;28;20028;-38
2022/10/19 21:34:05;;;;;;;17.55;7.30;;;8.60;88.60;;;;;;5095631;28;20456;-39
2022/10/19 21:36:31;;;;;;;9.18;5.80;;;8.60;88.70;;;;;;5096451;28;20042;-39
2022/10/19 21:38:56;;;;;;;11.00;5.78;;;8.60;88.70;;;;;;5095111;28;20443;-39
2022/10/19 21:41:22;;;;;;;14.88;8.60;;;8.60;88.80;;;;;;5096669;28;20028;-40
2022/10/19 21:43:48;;;;;;;13.40;7.03;;;8.60;89.00;;;;;;5096290;28;20028;-39
2022/10/19 21:46:18;;;;;;;12.13;8.70;;;8.50;89.00;;;;;;5096171;28;20068;-39
2022/10/19 21:48:44;;;;;;;17.75;7.22;;;8.50;88.90;;;;;;5095340;28;20545;-38
2022/10/19 21:51:16;;;;;;;9.93;6.38;;;8.40;89.00;;;;;;5096403;28;20024;-38
2022/10/19 21:53:42;;;;;;;21.85;7.22;;;8.40;89.20;;;;;;5096342;28;20035;-41
2022/10/19 21:56:08;;;;;;;13.50;6.97;;;8.50;89.30;;;;;;5094998;28;20441;-41
2022/10/19 21:58:33;;;;;;;15.05;6.50;;;8.40;89.40;;;;;;5096177;28;20047;-40
2022/10/19 22:01:06;;;;;;;13.90;6.22;;;8.40;89.50;;;;;;5096148;28;20024;-41
2022/10/19 22:03:32;;;;;;;11.77;6.55;;;8.40;89.40;;;;;;5096368;28;20063;-39
2022/10/19 22:05:58;;;;;;;11.13;7.05;;;8.40;89.60;;;;;;5095888;28;20035;-38
2022/10/19 22:08:24;;;;;;;16.02;6.90;;;8.40;89.60;;;;;;5094356;28;20024;-39
2022/10/19 22:10:49;;;;;;;11.85;6.90;;;8.40;89.40;;;;;;5095750;28;20028;-38
2022/10/19 22:13:15;;;;;;;13.13;6.65;;;8.30;89.40;;;;;;5095898;28;20441;-38
2022/10/19 22:15:41;;;;;;;13.18;7.18;;;8.40;89.70;;;;;;5096307;28;20028;-38
2022/10/19 22:18:07;;;;;;;21.80;8.27;;;8.40;89.50;;;;;;5077814;28;20472;-38
2022/10/19 22:20:37;;;;;;;12.23;8.35;;;8.30;89.40;;;;;;5095654;28;20080;-38
2022/10/19 22:23:04;;;;;;;10.52;7.50;;;8.30;89.50;;;;;;5095617;28;20099;-40
2022/10/19 22:25:31;;;;;;;14.95;8.35;;;8.30;89.60;;;;;;5095325;28;20035;-38
2022/10/19 22:27:57;;;;;;;12.90;7.07;;;8.30;89.60;;;;;;5095458;28;20031;-38
2022/10/19 22:30:23;;;;;;;13.60;8.13;;;8.30;89.60;;;;;;5094071;28;20020;-38
2022/10/19 22:32:48;;;;;;;13.98;7.32;;;8.30;89.60;;;;;;5095725;28;20020;-47
2022/10/19 22:35:14;;;;;;;13.82;8.00;;;8.30;89.60;;;;;;5095486;28;20023;-39
2022/10/19 22:37:40;;;;;;;22.70;7.88;;;8.20;89.60;;;;;;5095306;28;20387;-39
2022/10/19 22:40:06;;;;;;;15.82;7.30;;;8.30;89.70;;;;;;5095326;28;20024;-38
2022/10/19 22:42:31;;;;;;;11.55;7.18;;;8.30;89.70;;;;;;5095250;28;20428;-39
2022/10/19 22:44:57;;;;;;;14.32;7.85;;;8.30;89.60;;;;;;5095069;28;20109;-38
2022/10/19 22:47:23;;;;;;;13.13;6.90;;;8.30;89.60;;;;;;5094873;28;20178;-39
2022/10/19 22:49:49;;;;;;;16.33;9.30;;;8.20;89.60;;;;;;5095412;28;20384;-39
2022/10/19 22:52:15;;;;;;;12.20;7.55;;;8.20;89.60;;;;;;5093694;28;20030;-39
2022/10/19 22:54:43;;;;;;;17.00;7.65;;;8.20;89.70;;;;;;5095035;28;20324;-39
2022/10/19 22:57:10;;;;;;;11.02;6.65;;;8.20;89.60;;;;;;5095167;28;20073;-39
2022/10/19 22:59:36;;;;;;;16.17;7.40;;;8.20;89.60;;;;;;5095103;28;20032;-39
2022/10/19 23:02:02;;;;;;;11.80;7.47;;;8.20;89.70;;;;;;5095411;28;20016;-39
2022/10/19 23:04:27;;;;;;;12.60;7.30;;;8.10;89.70;;;;;;5095136;28;20027;-38
2022/10/19 23:06:53;;;;;;;15.55;7.30;;;8.10;89.70;;;;;;5094710;28;20024;-39
2022/10/19 23:09:19;;;;;;;12.20;7.22;;;8.10;89.60;;;;;;5094724;28;20030;-39
2022/10/19 23:11:45;;;;;;;13.40;7.40;;;8.10;89.70;;;;;;5094618;28;20024;-41
2022/10/19 23:14:11;;;;;;;11.88;6.82;;;8.10;89.70;;;;;;5094514;28;20494;-40
2022/10/19 23:16:37;;;;;;;15.60;7.78;;;8.10;89.70;;;;;;5094497;28;20024;-41
2022/10/19 23:19:03;;;;;;;10.98;7.15;;;8.00;89.80;;;;;;5094585;28;20063;-39
2022/10/19 23:21:28;;;;;;;10.15;7.25;;;8.00;89.90;;;;;;5095327;28;20380;-40
2022/10/19 23:23:54;;;;;;;14.00;7.40;;;8.00;89.90;;;;;;5094810;28;20035;-39
2022/10/19 23:26:20;;;;;;;19.15;8.35;;;8.00;89.90;;;;;;5094547;28;20487;-39
2022/10/19 23:28:48;;;;;;;13.93;8.15;;;8.00;90.00;;;;;;5094450;28;20032;-40
2022/10/19 23:31:23;;;;;;;11.82;7.53;;;8.00;90.00;;;;;;5094539;28;20023;-39
2022/10/19 23:33:48;;;;;;;18.50;9.40;;;8.20;89.90;;;;;;5094436;28;20094;-38
2022/10/19 23:36:19;;;;;;;19.92;9.45;;;8.10;89.80;;;;;;5094194;28;20028;-38
2022/10/19 23:38:45;;;;;;;;;;;8.00;89.90;;;;;;5095576;28;20108;-40
2022/10/19 23:41:12;;;;;;;10.40;6.95;;;8.00;89.90;;;;;;5094256;28;19983;-40
2022/10/19 23:43:38;;;;;;;11.90;7.68;;;7.90;89.90;;;;;;5094300;28;20438;-39
2022/10/19 23:46:04;;;;;;;10.43;6.97;;;8.00;90.00;;;;;;5093997;28;20074;-39
2022/10/19 23:48:29;;;;;;;14.07;7.78;;;8.00;90.10;;;;;;5094272;28;20091;-39
2022/10/19 23:51:10;;;;;;;12.35;7.80;;;7.90;90.00;;;;;;5093951;28;20413;-39
2022/10/19 23:53:38;;;;;;;18.95;7.35;;;7.90;90.10;;;;;;5094312;28;20081;-40
2022/10/19 23:56:06;;;;;;;15.65;6.95;;;7.90;90.00;;;;;;5093463;28;20028;-42